Pagrindinis puslapis
METAR-TAF:

METAR-TAF

Oro uostai :

Florianopolis, Santa Katarina, Brazilija

platuma: 27-40S, ilguma: 048-33W, Aukštis: 5 m

Dabartinis oras

Ataskaita buvo paskelbta 38 minutes, ne 01:00 UTC
Vėjas 9 kt iš Pietų/Pietvakarių
Temperatūra 19°C
Drėgmė 64%
Slėgis 1017 hPa
Matomumas 10 km arba daugiau
nėra debesų žemiau 1500 m ir nėra kamuolinių lietaus debesų

METAR: SBFL 090100Z 21009KT CAVOK 19/12 Q1017

Laikas: 22:38 (01:38 UTC)

Prognozė

Ataskaita buvo paskelbta 4 valandos ir 38 minutes, ne 21:00 UTC
Prognozė galioja nuo 09 metu 00 UTC su 09 metu 24 UTC
Vėjas 7 kt iš Pietų/Pietvakarių
Matomumas 10 km arba daugiau
Išsisklaidę debesys ne aukštis 3000 ft
Tapsmas
nuo 09 metu 14 UTC su 09 metu 16 UTC
Vėjas 12 kt iš Pietų/Pietryčių
Išsisklaidę debesys ne aukštis 3500 ft

TAF: SBFL 082100Z 0900/0924 20007KT 9999 SCT030 TN16/0906Z TX23/0918Z BECMG 0914/0916 16012KT SCT035 RMK PAZ

Orai ataskaitas ir orų prognozės (METAR, TAF).

turimą stotys yra geltonos ir raudonos taškus žemėlapyje.

Perkelti pele per norėdami pamatyti stoties vardą.

Tada spustelėkite, norėdami matyti oro stebėjimo ir prognozės.

Norėdami pakeisti žemėlapį: spustelėkite ant žalios mygtukų su juodo kryžiaus žemyn,; žalią mygtuką su brūkšneliu, jei norite nutolinti; arba žalių rodyklių gretimoms žemėlapius.


METAR-TAF: